createdAt,value
2019-04-30T00:03:25.547Z,84.06
2019-04-30T00:07:30.440Z,84.05
2019-04-30T00:11:36.249Z,83.62
2019-04-30T00:15:41.270Z,83.59
2019-04-30T00:19:50.566Z,83.61
2019-04-30T00:23:52.743Z,83.54
2019-04-30T00:28:00.253Z,83.61
2019-04-30T00:32:07.878Z,83.45
2019-04-30T00:36:12.239Z,82.67
2019-04-30T00:40:17.124Z,82.77
2019-04-30T00:44:25.990Z,83.27
2019-04-30T00:48:31.221Z,83.21
2019-04-30T00:52:37.033Z,83.06
2019-04-30T00:56:41.803Z,82.94
2019-04-30T01:00:59.741Z,83.00
2019-04-30T01:05:11.613Z,83.24
2019-04-30T01:09:16.507Z,83.19
2019-04-30T01:13:21.403Z,84.54
2019-04-30T01:17:26.299Z,82.68
2019-04-30T01:21:31.451Z,82.40
2019-04-30T01:25:36.420Z,82.55
2019-04-30T01:29:44.374Z,82.58
2019-04-30T01:33:48.943Z,82.74
2019-04-30T01:37:53.918Z,82.29
2019-04-30T01:42:02.795Z,82.21
2019-04-30T01:46:12.145Z,82.37
2019-04-30T01:50:12.733Z,82.36
2019-04-30T01:54:23.846Z,82.59
2019-04-30T01:58:25.867Z,82.43
2019-04-30T02:02:32.397Z,82.46
2019-04-30T02:06:39.114Z,82.49
2019-04-30T02:10:44.052Z,82.47
2019-04-30T02:14:49.428Z,81.84
2019-04-30T02:18:55.896Z,81.86
2019-04-30T02:23:00.766Z,81.96
2019-04-30T02:27:05.660Z,82.35
2019-04-30T02:31:10.567Z,82.27
2019-04-30T02:35:22.993Z,82.59
2019-04-30T02:39:30.208Z,82.43
2019-04-30T02:43:34.963Z,82.15
2019-04-30T02:47:40.093Z,82.25
2019-04-30T02:51:49.727Z,81.98
2019-04-30T02:55:53.336Z,81.58
2019-04-30T03:00:02.796Z,81.60
2019-04-30T03:04:09.848Z,81.10
2019-04-30T03:08:15.117Z,81.08
2019-04-30T03:12:20.425Z,79.79
2019-04-30T03:16:30.405Z,79.60
2019-04-30T03:20:46.019Z,78.45
2019-04-30T03:24:50.907Z,77.77
2019-04-30T03:28:55.782Z,77.89
2019-04-30T03:33:02.741Z,78.22
2019-04-30T03:37:09.886Z,78.31
2019-04-30T03:41:13.838Z,78.55
2019-04-30T03:45:20.478Z,78.57
2019-04-30T03:49:25.516Z,78.32
2019-04-30T03:53:30.382Z,78.90
2019-04-30T03:57:35.269Z,79.16
2019-04-30T04:01:41.862Z,79.28
2019-04-30T04:05:51.337Z,77.94
2019-04-30T04:10:00.799Z,77.93
2019-04-30T04:14:05.685Z,77.94
2019-04-30T04:18:10.934Z,77.45
2019-04-30T04:22:15.829Z,77.55
2019-04-30T04:26:20.713Z,77.08
2019-04-30T04:30:25.586Z,77.07
2019-04-30T04:34:30.479Z,76.61
2019-04-30T04:38:35.388Z,76.26
2019-04-30T04:42:40.242Z,74.86
2019-04-30T04:46:45.130Z,74.65
2019-04-30T04:50:50.369Z,74.48
2019-04-30T04:54:55.389Z,73.69
2019-04-30T04:59:00.378Z,72.75
2019-04-30T05:03:06.894Z,73.14
2019-04-30T05:07:11.787Z,73.57
2019-04-30T05:11:16.673Z,73.67
2019-04-30T05:15:21.567Z,73.49
2019-04-30T05:19:28.489Z,72.66
2019-04-30T05:23:33.058Z,72.96
2019-04-30T05:27:39.238Z,74.47
2019-04-30T05:31:44.326Z,73.30
2019-04-30T05:35:49.625Z,71.69
2019-04-30T05:39:54.586Z,65.31
2019-04-30T05:43:59.488Z,52.24
2019-04-30T05:48:05.531Z,49.32
2019-04-30T05:52:11.668Z,45.35
2019-04-30T05:56:16.583Z,41.53
2019-04-30T06:00:21.819Z,40.54
2019-04-30T06:04:26.801Z,38.13
2019-04-30T06:08:33.329Z,35.58
2019-04-30T06:12:59.457Z,33.93
2019-04-30T06:17:09.723Z,33.21
2019-04-30T06:21:14.820Z,33.23
2019-04-30T06:25:28.353Z,32.28
2019-04-30T06:29:26.467Z,32.98
2019-04-30T06:33:31.428Z,31.66
2019-04-30T06:37:39.084Z,30.37
2019-04-30T06:41:44.606Z,30.04
2019-04-30T06:45:51.436Z,29.10
2019-04-30T06:49:56.284Z,29.14
2019-04-30T06:54:01.189Z,28.53
2019-04-30T06:58:14.777Z,27.88
2019-04-30T07:02:12.659Z,26.53
2019-04-30T07:06:27.492Z,28.40
2019-04-30T07:10:25.799Z,32.94
2019-04-30T07:14:30.767Z,36.19
2019-04-30T07:18:35.863Z,36.90
2019-04-30T07:22:49.367Z,37.25
2019-04-30T07:26:48.977Z,38.53
2019-04-30T07:31:07.559Z,38.96
2019-04-30T07:35:00.620Z,39.46
2019-04-30T07:39:09.980Z,40.33
2019-04-30T07:43:14.032Z,41.77
2019-04-30T07:47:19.619Z,42.42
2019-04-30T07:51:25.161Z,41.58
2019-04-30T07:55:30.578Z,42.22
2019-04-30T07:59:35.475Z,42.46
2019-04-30T08:03:42.433Z,43.00
2019-04-30T08:07:48.902Z,41.57
2019-04-30T08:11:54.059Z,42.85
2019-04-30T08:15:59.646Z,42.87
2019-04-30T08:20:06.068Z,43.68
2019-04-30T08:24:10.954Z,44.84
2019-04-30T08:28:15.857Z,43.09
2019-04-30T08:32:20.753Z,43.66
2019-04-30T08:36:25.652Z,44.09
2019-04-30T08:40:30.554Z,42.30
2019-04-30T08:44:35.431Z,43.72
2019-04-30T08:48:50.299Z,43.77
2019-04-30T08:52:47.009Z,43.09
2019-04-30T08:56:51.900Z,44.07
2019-04-30T09:00:58.637Z,43.64
2019-04-30T09:05:09.538Z,42.85
2019-04-30T09:09:16.373Z,42.41
2019-04-30T09:13:21.313Z,43.16
2019-04-30T09:17:26.181Z,44.30
2019-04-30T09:21:31.084Z,42.10
2019-04-30T09:25:36.811Z,40.05
2019-04-30T09:29:44.433Z,40.41
2019-04-30T09:33:49.261Z,41.26
2019-04-30T09:38:01.117Z,42.15
2019-04-30T09:42:00.861Z,39.67
2019-04-30T09:46:19.022Z,41.46
2019-04-30T09:50:14.926Z,39.37
2019-04-30T09:54:20.631Z,40.18
2019-04-30T09:58:25.906Z,38.64
2019-04-30T10:02:30.800Z,38.57
2019-04-30T10:06:39.582Z,39.61
2019-04-30T10:10:43.923Z,38.88
2019-04-30T10:14:49.438Z,39.41
2019-04-30T10:18:54.588Z,38.07
2019-04-30T10:22:59.661Z,37.78
2019-04-30T10:27:07.054Z,36.66
2019-04-30T10:31:11.529Z,37.09
2019-04-30T10:35:18.385Z,38.11
2019-04-30T10:39:23.435Z,37.91
2019-04-30T10:43:29.076Z,37.80
2019-04-30T10:47:35.909Z,36.57
2019-04-30T10:51:40.790Z,36.34
2019-04-30T10:55:45.687Z,37.19
2019-04-30T10:59:51.558Z,36.60
2019-04-30T11:03:56.451Z,36.25
2019-04-30T11:08:01.348Z,35.91
2019-04-30T11:12:06.746Z,35.21
2019-04-30T11:16:14.775Z,37.07
2019-04-30T11:20:21.702Z,36.19
2019-04-30T11:24:36.000Z,35.32
2019-04-30T11:28:31.677Z,37.60
2019-04-30T11:32:36.964Z,36.37
2019-04-30T11:36:41.922Z,35.81
2019-04-30T11:40:48.624Z,36.82
2019-04-30T11:44:53.644Z,36.31
2019-04-30T11:48:58.788Z,35.26
2019-04-30T11:53:19.741Z,36.44
2019-04-30T11:57:10.643Z,36.57
2019-04-30T12:01:19.403Z,36.67
2019-04-30T12:05:24.047Z,35.18
2019-04-30T12:09:48.463Z,34.63
2019-04-30T12:13:53.444Z,35.52
2019-04-30T12:17:58.333Z,35.29
2019-04-30T12:22:03.243Z,36.26
2019-04-30T12:26:09.167Z,36.02
2019-04-30T12:30:15.914Z,37.69
2019-04-30T12:34:20.812Z,36.38
2019-04-30T12:38:25.698Z,36.54
2019-04-30T12:42:30.598Z,36.55
2019-04-30T12:46:35.492Z,36.17
2019-04-30T12:50:45.052Z,36.82
2019-04-30T12:54:54.566Z,37.69
2019-04-30T12:58:59.453Z,37.22
2019-04-30T13:03:04.354Z,37.26
2019-04-30T13:07:10.499Z,38.05
2019-04-30T13:11:16.473Z,38.20
2019-04-30T13:15:21.703Z,38.18
2019-04-30T13:19:26.589Z,38.26
2019-04-30T13:23:31.487Z,39.23
2019-04-30T13:27:38.023Z,39.59
2019-04-30T13:31:42.922Z,37.91
2019-04-30T13:35:48.866Z,36.37
2019-04-30T13:39:55.538Z,36.52
2019-04-30T13:44:01.802Z,36.95
2019-04-30T13:48:08.806Z,38.58
2019-04-30T13:52:13.313Z,37.70
2019-04-30T13:56:20.120Z,38.33
2019-04-30T14:00:26.511Z,37.93
2019-04-30T14:04:38.871Z,37.24
2019-04-30T14:08:45.674Z,37.20
2019-04-30T14:12:52.275Z,36.67
2019-04-30T14:16:58.699Z,37.84
2019-04-30T14:21:03.770Z,37.16
2019-04-30T14:25:08.890Z,37.98
2019-04-30T14:29:13.856Z,38.49
2019-04-30T14:33:25.936Z,39.25
2019-04-30T14:37:25.420Z,38.31
2019-04-30T14:41:32.508Z,38.61
2019-04-30T14:45:59.402Z,38.92
2019-04-30T14:50:06.659Z,38.75
2019-04-30T14:54:16.222Z,38.67
2019-04-30T14:58:22.755Z,39.16
2019-04-30T15:02:29.682Z,38.82
2019-04-30T15:06:34.705Z,37.92
2019-04-30T15:10:39.656Z,38.12
2019-04-30T15:14:44.555Z,38.02
2019-04-30T15:18:49.451Z,38.16
2019-04-30T15:23:09.273Z,39.44
2019-04-30T15:27:14.170Z,39.38
2019-04-30T15:31:19.057Z,38.72
2019-04-30T15:35:23.950Z,38.68
2019-04-30T15:39:36.200Z,38.56
2019-04-30T15:43:41.091Z,38.54
2019-04-30T15:47:45.996Z,37.97
2019-04-30T15:51:50.972Z,38.36
2019-04-30T15:55:55.856Z,38.99
2019-04-30T16:00:00.755Z,39.59
2019-04-30T16:04:10.073Z,38.42
2019-04-30T16:08:18.993Z,39.21
2019-04-30T16:12:41.729Z,37.77
2019-04-30T16:16:48.321Z,38.51
2019-04-30T16:20:53.214Z,38.52
2019-04-30T16:25:00.431Z,38.06
2019-04-30T16:29:04.785Z,38.14
2019-04-30T16:33:09.682Z,38.52
2019-04-30T16:37:14.568Z,38.38
2019-04-30T16:41:31.027Z,38.49
2019-04-30T16:45:26.070Z,39.02
2019-04-30T16:49:30.960Z,39.50
2019-04-30T16:53:35.855Z,39.67
2019-04-30T16:57:41.222Z,39.57
2019-04-30T17:01:57.535Z,39.62
2019-04-30T17:06:11.909Z,39.82
2019-04-30T17:10:30.692Z,39.38
2019-04-30T17:14:38.871Z,39.82
2019-04-30T17:18:43.793Z,40.08
2019-04-30T17:22:49.651Z,40.38
2019-04-30T17:26:54.842Z,40.67
2019-04-30T17:30:59.736Z,40.75
2019-04-30T17:35:06.365Z,40.11
2019-04-30T17:39:12.904Z,40.35
2019-04-30T17:43:17.799Z,40.87
2019-04-30T17:47:22.703Z,41.59
2019-04-30T17:51:27.664Z,41.96
2019-04-30T17:55:32.554Z,42.06
2019-04-30T17:59:37.452Z,42.18
2019-04-30T18:03:42.413Z,42.51
2019-04-30T18:07:49.632Z,43.18
2019-04-30T18:11:53.910Z,44.43
2019-04-30T18:16:00.449Z,44.43
2019-04-30T18:20:11.113Z,45.08
2019-04-30T18:24:20.582Z,45.58
2019-04-30T18:28:26.243Z,45.58
2019-04-30T18:32:31.143Z,45.50
2019-04-30T18:36:36.030Z,46.86
2019-04-30T18:40:41.000Z,46.86
2019-04-30T18:44:45.957Z,48.20
2019-04-30T18:48:52.774Z,48.20
2019-04-30T18:52:59.105Z,48.52
2019-04-30T18:57:04.217Z,49.66
2019-04-30T19:01:09.679Z,49.85
2019-04-30T19:05:16.208Z,50.71
2019-04-30T19:09:23.890Z,51.62
2019-04-30T19:13:46.603Z,52.14
2019-04-30T19:17:55.840Z,52.14
2019-04-30T19:22:00.730Z,52.20
2019-04-30T19:26:05.618Z,52.26
2019-04-30T19:30:11.057Z,52.29
2019-04-30T19:34:15.956Z,52.29
2019-04-30T19:38:20.851Z,52.02
2019-04-30T19:42:25.748Z,52.44
2019-04-30T19:46:30.640Z,53.11
2019-04-30T19:50:35.536Z,53.44
2019-04-30T19:54:40.437Z,53.90
2019-04-30T19:58:55.830Z,54.35
2019-04-30T20:02:51.933Z,54.77
2019-04-30T20:06:56.815Z,55.61
2019-04-30T20:11:01.710Z,55.82
2019-04-30T20:15:17.203Z,56.05
2019-04-30T20:19:14.232Z,56.46
2019-04-30T20:23:19.135Z,56.71
2019-04-30T20:27:24.018Z,57.16
2019-04-30T20:31:28.919Z,57.76
2019-04-30T20:35:33.808Z,58.36
2019-04-30T20:39:40.344Z,58.51
2019-04-30T20:43:45.243Z,59.22
2019-04-30T20:47:50.140Z,59.96
2019-04-30T20:51:56.102Z,60.40
2019-04-30T20:56:01.192Z,60.72
2019-04-30T21:00:07.126Z,60.75
2019-04-30T21:04:13.621Z,60.69
2019-04-30T21:08:18.506Z,60.61
2019-04-30T21:12:23.399Z,61.06
2019-04-30T21:16:28.362Z,61.46
2019-04-30T21:20:33.261Z,61.49
2019-04-30T21:24:38.158Z,61.63
2019-04-30T21:28:43.050Z,61.09
2019-04-30T21:32:55.574Z,61.22
2019-04-30T21:37:00.464Z,61.71
2019-04-30T21:41:05.357Z,62.30
2019-04-30T21:45:10.313Z,62.73
2019-04-30T21:49:15.202Z,62.80
2019-04-30T21:53:20.083Z,63.40
2019-04-30T21:57:24.970Z,64.53
2019-04-30T22:01:29.932Z,65.39
2019-04-30T22:05:34.897Z,65.37
2019-04-30T22:09:39.780Z,65.23
2019-04-30T22:13:44.659Z,64.07
2019-04-30T22:17:49.550Z,64.19
2019-04-30T22:21:54.438Z,65.09
2019-04-30T22:25:59.320Z,65.68
2019-04-30T22:30:07.206Z,65.40
2019-04-30T22:34:12.079Z,66.08
2019-04-30T22:38:24.351Z,66.59
2019-04-30T22:42:32.090Z,66.20
2019-04-30T22:46:36.983Z,67.14
2019-04-30T22:50:41.940Z,66.89
2019-04-30T22:54:46.823Z,66.79
2019-04-30T22:58:51.706Z,66.71
2019-04-30T23:02:58.252Z,67.15
2019-04-30T23:07:03.133Z,67.53
2019-04-30T23:11:08.090Z,67.08
2019-04-30T23:15:14.509Z,66.65
2019-04-30T23:19:19.398Z,67.30
2019-04-30T23:23:24.291Z,67.87
2019-04-30T23:27:29.171Z,67.39
2019-04-30T23:31:34.062Z,67.88
2019-04-30T23:35:38.936Z,68.02
2019-04-30T23:39:43.835Z,69.22
2019-04-30T23:43:48.720Z,69.24
2019-04-30T23:47:53.610Z,69.15
2019-04-30T23:51:58.502Z,69.49
2019-04-30T23:56:03.383Z,70.50
